Portada
METAR-TAF:

METAR-TAF

Aeroports :

Accra, Ghana

latitud: 05-36N, longitud: 000-10W, altitud: 68 m

Observació

L'informe es va fer fa 33 minuts, a les 08:00 UTC
Vent 7 kt del Oest
Temperatura 27°C
Humitat 84%
Pressió 1014 hPa
Visibilitat 10 km o més
sense núvols per sota de 1500 mi sense presència de cumulonimbus.

METAR: DGAA 060800Z 28007KT CAVOK 27/24 Q1014 NOSIG

Hora: 08:33 (08:33 UTC)

Pronòstic

L'informe es va fer fa 3 hores i 33 minuts, a les 05:00 UTC
Pronòstic vàlid del 06 a les 06 UTC al 07 a les 12 UTC
Vent 10 kt del Oest/Sud-Oest
Visibilitat 10 km o més
Escasses núvols a una alçada de 1400 ft
Evolucionant progressivament
l' 06 a les 11 UTC al 06 a les 13 UTC
Vent 15 kt del Sud
Cel ennuvolat a una alçada de 2000 ft
Probabilitat 30% :
Temporalment
l' 06 a les 15 UTC al 06 a les 19 UTC
Escasses núvols a una alçada de 3000 ft, Cumulonimbus.

TAF: DGAA 060500Z 0606/0712 25010KT 9999 FEW014 BECMG 0611/0613 19015KT BKN020 PROB30 TEMPO 0615/0619 FEW030CB

Observacions i pronòstics meteorològics de més de 4000 aeroports (METAR i TAF).

Les estacions disponibles són els punts grocs i vermells al mapa.

Posi el ratolí al punt desitjat per veure el nom de l'estació.

Feu clic per veure les observacions i els pronòstics meteorològics.

Per canviar el mapa: feu clic els botons verds amb una creu de color negre per apropar; al botó verd amb un guió per allunyar la imatge; o en les fletxes verdes per a mapes adjacents.


METAR-TAF: